createdAt,value
2024-05-09T00:00:48.942Z,3.75
2024-05-09T00:06:12.173Z,3.67
2024-05-09T00:11:16.382Z,3.65
2024-05-09T00:16:19.343Z,3.62
2024-05-09T00:21:22.237Z,3.57
2024-05-09T00:26:25.240Z,3.51
2024-05-09T00:31:28.301Z,3.43
2024-05-09T00:36:31.257Z,3.34
2024-05-09T00:41:34.360Z,3.30
2024-05-09T00:46:37.578Z,3.32
2024-05-09T00:51:42.140Z,3.31
2024-05-09T00:56:45.018Z,3.26
2024-05-09T01:01:48.652Z,3.19
2024-05-09T01:06:51.751Z,3.09
2024-05-09T01:11:54.975Z,2.97
2024-05-09T01:16:57.932Z,2.85
2024-05-09T01:22:01.061Z,2.80
2024-05-09T01:27:04.378Z,2.76
2024-05-09T01:32:07.497Z,2.71
2024-05-09T01:37:10.400Z,2.68
2024-05-09T01:42:13.306Z,2.64
2024-05-09T01:47:16.365Z,2.58
2024-05-09T01:52:19.617Z,2.55
2024-05-09T01:57:22.536Z,2.52
2024-05-09T02:02:25.644Z,2.44
2024-05-09T02:07:28.670Z,2.36
2024-05-09T02:12:31.752Z,2.31
2024-05-09T02:17:34.794Z,2.24
2024-05-09T02:22:37.774Z,2.19
2024-05-09T02:27:40.676Z,2.11
2024-05-09T02:32:43.686Z,2.07
2024-05-09T02:37:46.723Z,2.06
2024-05-09T02:42:49.701Z,2.01
2024-05-09T02:47:52.830Z,2.01
2024-05-09T02:52:55.953Z,2.02
2024-05-09T02:57:58.907Z,2.06
2024-05-09T03:03:02.185Z,2.10
2024-05-09T03:08:05.901Z,2.19
2024-05-09T03:13:12.643Z,2.50
2024-05-09T03:18:17.252Z,3.22
2024-05-09T03:23:20.342Z,4.17
2024-05-09T03:28:23.330Z,4.39
2024-05-09T03:33:26.562Z,4.98
2024-05-09T03:38:30.035Z,5.84
2024-05-09T03:43:33.029Z,6.68
2024-05-09T03:48:36.243Z,7.85
2024-05-09T03:53:39.532Z,9.00
2024-05-09T03:58:42.477Z,10.23
2024-05-09T04:03:45.639Z,11.95
2024-05-09T04:08:48.755Z,13.64
2024-05-09T04:13:51.645Z,14.66
2024-05-09T04:18:54.734Z,15.75
2024-05-09T04:23:57.814Z,16.74
2024-05-09T04:29:00.851Z,17.48
2024-05-09T04:34:04.418Z,17.91
2024-05-09T04:39:07.552Z,18.68
2024-05-09T04:44:10.721Z,19.30
2024-05-09T04:49:14.344Z,19.52
2024-05-09T04:54:29.529Z,19.46
2024-05-09T04:59:37.086Z,19.27
2024-05-09T05:04:40.157Z,19.61
2024-05-09T05:09:43.110Z,20.50
2024-05-09T05:14:46.221Z,20.88
2024-05-09T05:19:49.319Z,21.06
2024-05-09T05:24:52.436Z,21.14
2024-05-09T05:29:55.435Z,21.34
2024-05-09T05:34:58.354Z,21.46
2024-05-09T05:40:01.455Z,21.70
2024-05-09T05:45:06.784Z,21.84
2024-05-09T05:50:20.766Z,21.99
2024-05-09T05:55:30.538Z,22.15
2024-05-09T06:00:38.441Z,22.30
2024-05-09T06:05:44.227Z,22.55
2024-05-09T06:10:47.743Z,22.81
2024-05-09T06:15:50.762Z,22.96
2024-05-09T06:20:53.792Z,23.01
2024-05-09T06:25:56.855Z,23.18
2024-05-09T06:31:01.829Z,23.25
2024-05-09T06:36:05.740Z,23.34
2024-05-09T06:41:08.794Z,23.58
2024-05-09T06:46:11.772Z,23.78
2024-05-09T06:51:14.878Z,24.23
2024-05-09T06:56:18.058Z,24.54
2024-05-09T07:01:21.045Z,24.60
2024-05-09T07:06:24.203Z,24.69
2024-05-09T07:11:27.384Z,24.66
2024-05-09T07:16:30.427Z,24.83
2024-05-09T07:21:33.431Z,24.91
2024-05-09T07:26:36.648Z,24.81
2024-05-09T07:31:40.368Z,24.70
2024-05-09T07:36:43.668Z,24.58
2024-05-09T07:41:47.012Z,24.47
2024-05-09T07:47:52.255Z,24.70
2024-05-09T07:53:29.788Z,24.76
2024-05-09T07:57:38.277Z,24.54
2024-05-09T08:02:41.560Z,24.39
2024-05-09T08:07:46.094Z,24.44
2024-05-09T08:12:49.010Z,24.34
2024-05-09T08:17:52.051Z,24.13
2024-05-09T08:22:55.183Z,23.40
2024-05-09T08:27:58.424Z,23.33
2024-05-09T08:33:01.650Z,23.36
2024-05-09T08:38:06.195Z,23.44
2024-05-09T08:43:11.947Z,23.31
2024-05-09T08:48:17.888Z,22.69
2024-05-09T08:53:21.420Z,22.27
2024-05-09T08:58:25.276Z,21.70
2024-05-09T09:03:33.051Z,21.15
2024-05-09T09:08:39.450Z,20.62
2024-05-09T09:13:42.353Z,20.31
2024-05-09T09:18:49.722Z,20.00
2024-05-09T09:23:52.850Z,19.82
2024-05-09T09:29:01.819Z,19.58
2024-05-09T09:34:08.936Z,19.46
2024-05-09T09:39:16.849Z,19.45
2024-05-09T09:44:22.100Z,19.64
2024-05-09T09:49:26.594Z,19.31
2024-05-09T09:54:29.914Z,18.58
2024-05-09T09:59:35.645Z,18.39
2024-05-09T10:04:38.603Z,18.50
2024-05-09T10:09:41.876Z,18.74
2024-05-09T10:14:49.303Z,18.99
2024-05-09T10:20:14.369Z,19.19
2024-05-09T10:25:25.193Z,19.23
2024-05-09T10:30:34.164Z,19.22
2024-05-09T10:35:39.273Z,19.39
2024-05-09T10:40:44.434Z,19.47
2024-05-09T10:45:49.213Z,19.25
2024-05-09T10:50:52.429Z,19.24
2024-05-09T10:56:00.926Z,19.45
2024-05-09T11:01:07.060Z,19.66
2024-05-09T11:06:11.681Z,19.93
2024-05-09T11:11:15.627Z,19.84
2024-05-09T11:16:21.378Z,19.88
2024-05-09T11:21:26.967Z,19.93
2024-05-09T11:26:32.376Z,20.08
2024-05-09T11:31:46.489Z,20.17
2024-05-09T11:36:49.622Z,20.30
2024-05-09T11:41:52.893Z,20.14
2024-05-09T11:46:56.398Z,19.83
2024-05-09T11:51:59.425Z,19.88
2024-05-09T11:57:02.609Z,19.98
2024-05-09T12:02:05.691Z,19.91
2024-05-09T12:07:11.414Z,19.75
2024-05-09T12:12:15.954Z,19.90
2024-05-09T12:17:18.992Z,20.10
2024-05-09T12:22:21.973Z,20.23
2024-05-09T12:27:24.951Z,20.34
2024-05-09T12:32:28.186Z,20.23
2024-05-09T12:37:31.167Z,20.35
2024-05-09T12:42:34.171Z,20.46
2024-05-09T12:47:37.098Z,20.64
2024-05-09T12:52:40.327Z,20.53
2024-05-09T12:57:43.531Z,20.30
2024-05-09T13:02:46.630Z,20.33
2024-05-09T13:07:50.240Z,20.43
2024-05-09T13:12:53.356Z,20.52
2024-05-09T13:18:00.533Z,20.52
2024-05-09T13:23:08.002Z,20.53
2024-05-09T13:28:12.341Z,20.53
2024-05-09T13:33:15.654Z,20.61
2024-05-09T13:38:20.159Z,20.79
2024-05-09T13:43:23.546Z,20.72
2024-05-09T13:48:26.697Z,20.77
2024-05-09T13:53:29.675Z,20.92
2024-05-09T13:58:32.842Z,21.00
2024-05-09T14:03:36.021Z,20.92
2024-05-09T14:08:39.004Z,20.92
2024-05-09T14:13:41.808Z,20.98
2024-05-09T14:18:44.725Z,20.86
2024-05-09T14:23:47.614Z,20.87
2024-05-09T14:28:50.516Z,20.91
2024-05-09T14:33:53.745Z,20.73
2024-05-09T14:38:56.838Z,20.53
2024-05-09T14:43:59.643Z,20.29
2024-05-09T14:49:02.802Z,20.20
2024-05-09T14:54:05.815Z,20.13
2024-05-09T14:59:09.312Z,19.89
2024-05-09T15:04:12.358Z,19.78
2024-05-09T15:09:15.495Z,19.46
2024-05-09T15:14:18.394Z,19.03
2024-05-09T15:19:21.532Z,18.77
2024-05-09T15:24:24.511Z,18.80
2024-05-09T15:29:29.465Z,19.15
2024-05-09T15:34:32.495Z,19.43
2024-05-09T15:39:35.608Z,19.66
2024-05-09T15:44:38.587Z,19.80
2024-05-09T15:49:41.675Z,19.66
2024-05-09T15:54:44.737Z,19.31
2024-05-09T15:59:47.779Z,19.27
2024-05-09T16:04:50.911Z,19.27
2024-05-09T16:09:54.000Z,19.25
2024-05-09T16:14:57.035Z,19.21
2024-05-09T16:20:00.201Z,19.11
2024-05-09T16:25:03.519Z,19.02
2024-05-09T16:30:11.967Z,18.95
2024-05-09T16:35:18.182Z,18.92
2024-05-09T16:40:29.654Z,18.87
2024-05-09T16:45:41.053Z,18.76
2024-05-09T16:50:44.117Z,18.60
2024-05-09T16:55:47.211Z,18.43
2024-05-09T17:00:50.731Z,18.27
2024-05-09T17:05:54.056Z,18.15
2024-05-09T17:10:57.184Z,18.02
2024-05-09T17:16:00.424Z,17.93
2024-05-09T17:21:03.666Z,17.83
2024-05-09T17:26:07.215Z,17.64
2024-05-09T17:31:10.629Z,17.41
2024-05-09T17:36:14.158Z,17.21
2024-05-09T17:41:17.135Z,17.04
2024-05-09T17:46:20.278Z,16.86
2024-05-09T17:51:23.977Z,16.63
2024-05-09T17:56:27.586Z,16.39
2024-05-09T18:01:30.771Z,16.15
2024-05-09T18:06:34.205Z,15.89
2024-05-09T18:11:37.350Z,15.65
2024-05-09T18:16:40.330Z,15.40
2024-05-09T18:21:43.312Z,15.15
2024-05-09T18:26:46.348Z,14.92
2024-05-09T18:31:49.350Z,14.68
2024-05-09T18:36:52.507Z,14.46
2024-05-09T18:41:55.973Z,14.24
2024-05-09T18:46:58.984Z,14.04
2024-05-09T18:52:02.075Z,13.86
2024-05-09T18:57:05.693Z,13.69
2024-05-09T19:02:08.755Z,13.53
2024-05-09T19:07:13.503Z,13.36
2024-05-09T19:12:17.045Z,13.15
2024-05-09T19:17:20.042Z,12.95
2024-05-09T19:22:23.223Z,12.78
2024-05-09T19:27:26.412Z,12.69
2024-05-09T19:32:29.618Z,12.63
2024-05-09T19:37:32.739Z,12.54
2024-05-09T19:42:35.785Z,12.36
2024-05-09T19:47:39.353Z,12.17
2024-05-09T19:52:42.369Z,12.05
2024-05-09T19:57:45.318Z,11.95
2024-05-09T20:02:48.422Z,11.87
2024-05-09T20:07:51.388Z,11.79
2024-05-09T20:12:54.430Z,11.69
2024-05-09T20:17:57.673Z,11.59
2024-05-09T20:23:00.992Z,11.47
2024-05-09T20:28:05.927Z,11.36
2024-05-09T20:33:10.042Z,11.20
2024-05-09T20:38:13.529Z,11.03
2024-05-09T20:43:16.468Z,10.87
2024-05-09T20:48:19.485Z,10.71
2024-05-09T20:53:22.664Z,10.60
2024-05-09T20:58:25.763Z,10.47
2024-05-09T21:03:30.203Z,10.32
2024-05-09T21:08:33.617Z,10.23
2024-05-09T21:13:36.572Z,10.29
2024-05-09T21:18:40.176Z,10.36
2024-05-09T21:23:43.862Z,10.43
2024-05-09T21:28:46.924Z,10.44
2024-05-09T21:33:50.203Z,10.42
2024-05-09T21:38:53.554Z,10.45
2024-05-09T21:43:56.669Z,10.49
2024-05-09T21:48:59.975Z,10.56
2024-05-09T21:54:03.279Z,10.71
2024-05-09T21:59:06.754Z,10.75
2024-05-09T22:04:09.858Z,10.75
2024-05-09T22:09:12.878Z,10.74
2024-05-09T22:14:15.774Z,10.75
2024-05-09T22:19:18.952Z,10.75
2024-05-09T22:24:21.994Z,10.67
2024-05-09T22:29:24.898Z,10.60
2024-05-09T22:34:27.855Z,10.52
2024-05-09T22:39:30.805Z,10.39
2024-05-09T22:44:34.117Z,10.23
2024-05-09T22:49:37.245Z,10.07
2024-05-09T22:54:40.285Z,9.89
2024-05-09T22:59:43.242Z,9.70
2024-05-09T23:04:46.403Z,9.52
2024-05-09T23:09:49.398Z,9.40
2024-05-09T23:14:52.365Z,9.30
2024-05-09T23:19:55.268Z,9.24
2024-05-09T23:24:58.332Z,9.19
2024-05-09T23:30:01.276Z,9.18
2024-05-09T23:35:04.877Z,9.23
2024-05-09T23:40:09.711Z,9.34
2024-05-09T23:45:13.186Z,9.46
2024-05-09T23:50:20.675Z,9.59
2024-05-09T23:55:29.464Z,9.71
